createdAt,value
2023-04-01T00:00:00.920Z,2.90
2023-04-01T00:02:31.547Z,3.60
2023-04-01T00:05:02.803Z,3.90
2023-04-01T00:07:34.117Z,3.60
2023-04-01T00:10:05.139Z,3.90
2023-04-01T00:12:36.070Z,3.60
2023-04-01T00:15:08.410Z,3.60
2023-04-01T00:17:39.219Z,3.80
2023-04-01T00:20:12.129Z,3.90
2023-04-01T00:22:42.877Z,3.90
2023-04-01T00:25:13.845Z,4.20
2023-04-01T00:27:44.544Z,3.80
2023-04-01T00:30:16.395Z,3.60
2023-04-01T00:32:46.972Z,4.60
2023-04-01T00:35:17.978Z,4.50
2023-04-01T00:37:48.827Z,4.30
2023-04-01T00:40:29.271Z,4.90
2023-04-01T00:42:59.924Z,4.70
2023-04-01T00:45:35.679Z,4.60
2023-04-01T00:48:11.397Z,4.70
2023-04-01T00:50:44.309Z,4.40
2023-04-01T00:53:16.073Z,4.40
2023-04-01T00:55:52.234Z,4.60
2023-04-01T00:58:26.143Z,4.60
2023-04-01T01:00:59.092Z,4.70
2023-04-01T01:03:29.972Z,5.30
2023-04-01T01:06:24.760Z,4.90
2023-04-01T01:09:09.579Z,4.70
2023-04-01T01:11:44.090Z,4.60
2023-04-01T01:14:27.146Z,5.10
2023-04-01T01:17:09.175Z,4.80
2023-04-01T01:20:25.240Z,4.60
2023-04-01T01:23:11.353Z,5.10
2023-04-01T01:25:52.050Z,4.80
2023-04-01T01:28:39.666Z,4.30
2023-04-01T01:31:22.041Z,4.60
2023-04-01T01:34:07.552Z,4.70
2023-04-01T01:36:40.770Z,3.70
2023-04-01T01:39:14.328Z,3.50
2023-04-01T01:41:47.950Z,4.00
2023-04-01T01:44:20.038Z,4.30
2023-04-01T01:46:51.552Z,3.80
2023-04-01T01:49:23.221Z,4.20
2023-04-01T01:51:53.691Z,4.40
2023-04-01T01:54:24.223Z,4.10
2023-04-01T01:57:03.588Z,4.60
2023-04-01T01:59:37.688Z,4.00
2023-04-01T02:02:10.718Z,3.70
2023-04-01T02:04:45.985Z,4.10
2023-04-01T02:07:22.820Z,3.70
2023-04-01T02:09:54.398Z,3.80
2023-04-01T02:12:27.449Z,3.90
2023-04-01T02:15:06.373Z,4.40
2023-04-01T02:17:40.529Z,4.00
2023-04-01T02:20:17.107Z,4.20
2023-04-01T02:22:51.691Z,5.00
2023-04-01T02:25:26.137Z,4.00
2023-04-01T02:27:58.889Z,3.40
2023-04-01T02:30:31.699Z,3.40
2023-04-01T02:33:03.595Z,3.10
2023-04-01T02:35:37.934Z,3.40
2023-04-01T02:38:08.935Z,3.00
2023-04-01T02:40:49.348Z,3.40
2023-04-01T02:43:22.305Z,3.10
2023-04-01T02:45:52.769Z,3.10
2023-04-01T02:48:23.271Z,3.30
2023-04-01T02:50:54.020Z,2.50
2023-04-01T02:53:24.514Z,3.10
2023-04-01T02:55:54.977Z,2.70
2023-04-01T02:58:25.766Z,2.30
2023-04-01T03:00:56.293Z,2.40
2023-04-01T03:03:26.881Z,2.40
2023-04-01T03:05:59.807Z,2.70
2023-04-01T03:08:30.239Z,2.30
2023-04-01T03:11:00.791Z,2.30
2023-04-01T03:13:31.913Z,2.30
2023-04-01T03:16:03.291Z,2.40
2023-04-01T03:18:34.300Z,2.10
2023-04-01T03:21:18.224Z,2.40
2023-04-01T03:23:48.750Z,2.60
2023-04-01T03:26:19.541Z,2.50
2023-04-01T03:28:50.076Z,2.40
2023-04-01T03:31:22.550Z,2.30
2023-04-01T03:33:55.815Z,2.50
2023-04-01T03:36:26.685Z,2.10
2023-04-01T03:38:57.242Z,2.60
2023-04-01T03:41:32.642Z,2.20
2023-04-01T03:44:03.596Z,2.70
2023-04-01T03:46:34.280Z,3.00
2023-04-01T03:49:05.295Z,2.70
2023-04-01T03:51:35.765Z,2.80
2023-04-01T03:54:06.916Z,3.30
2023-04-01T03:56:37.813Z,3.40
2023-04-01T03:59:09.987Z,3.60
2023-04-01T04:01:40.744Z,4.50
2023-04-01T04:04:12.883Z,5.40
2023-04-01T04:06:43.725Z,5.00
2023-04-01T04:09:14.667Z,6.00
2023-04-01T04:11:45.328Z,5.30
2023-04-01T04:14:16.063Z,5.40
2023-04-01T04:16:47.094Z,4.90
2023-04-01T04:19:17.737Z,4.90
2023-04-01T04:21:48.221Z,4.20
2023-04-01T04:24:18.961Z,5.90
2023-04-01T04:27:03.762Z,4.40
2023-04-01T04:29:34.568Z,4.00
2023-04-01T04:32:05.391Z,3.50
2023-04-01T04:34:37.294Z,3.60
2023-04-01T04:37:07.783Z,3.70
2023-04-01T04:42:09.089Z,4.30
2023-04-01T04:44:40.933Z,3.30
2023-04-01T04:47:11.867Z,2.90
2023-04-01T04:49:42.519Z,2.90
2023-04-01T04:52:13.600Z,2.20
2023-04-01T04:54:44.142Z,2.70
2023-04-01T04:57:14.981Z,2.80
2023-04-01T04:59:51.300Z,2.70
2023-04-01T05:02:33.356Z,2.50
2023-04-01T05:05:04.004Z,2.50
2023-04-01T05:07:34.894Z,2.10
2023-04-01T05:10:06.572Z,2.30
2023-04-01T05:12:39.782Z,2.20
2023-04-01T05:15:13.798Z,2.20
2023-04-01T05:17:44.631Z,2.00
2023-04-01T05:20:17.445Z,2.50
2023-04-01T05:22:47.976Z,2.30
2023-04-01T05:25:18.936Z,2.20
2023-04-01T05:27:49.396Z,2.50
2023-04-01T05:30:21.334Z,2.10
2023-04-01T05:33:13.089Z,2.30
2023-04-01T05:35:43.917Z,1.90
2023-04-01T05:38:14.725Z,2.10
2023-04-01T05:40:45.741Z,2.10
2023-04-01T05:43:16.898Z,2.30
2023-04-01T05:45:47.859Z,2.10
2023-04-01T05:48:18.346Z,2.10
2023-04-01T05:50:48.996Z,2.10
2023-04-01T05:53:19.475Z,2.10
2023-04-01T05:55:50.063Z,2.00
2023-04-01T05:58:20.549Z,2.20
2023-04-01T06:01:02.308Z,2.20
2023-04-01T06:03:39.510Z,2.20
2023-04-01T06:06:16.560Z,2.10
2023-04-01T06:08:47.685Z,2.20
2023-04-01T06:11:30.941Z,2.10
2023-04-01T06:14:19.906Z,2.20
2023-04-01T06:17:01.988Z,2.10
2023-04-01T06:19:42.490Z,2.10
2023-04-01T06:22:36.309Z,2.20
2023-04-01T06:25:26.834Z,2.30
2023-04-01T06:28:31.778Z,2.30
2023-04-01T06:31:12.797Z,2.30
2023-04-01T06:33:58.451Z,2.00
2023-04-01T06:36:59.617Z,2.20
2023-04-01T06:39:50.987Z,2.00
2023-04-01T06:42:44.311Z,1.90
2023-04-01T06:45:44.014Z,1.80
2023-04-01T06:48:55.148Z,1.70
2023-04-01T06:51:53.832Z,1.80
2023-04-01T06:54:49.715Z,1.90
2023-04-01T06:57:44.695Z,1.90
2023-04-01T07:00:21.682Z,2.00
2023-04-01T07:03:02.804Z,2.00
2023-04-01T07:05:36.649Z,1.60
2023-04-01T07:08:12.409Z,1.60
2023-04-01T07:10:49.464Z,1.60
2023-04-01T07:13:43.877Z,2.10
2023-04-01T07:16:26.430Z,2.00
2023-04-01T07:19:03.446Z,1.70
2023-04-01T07:21:49.455Z,1.90
2023-04-01T07:24:31.249Z,1.80
2023-04-01T07:27:13.688Z,1.50
2023-04-01T07:29:45.291Z,1.60
2023-04-01T07:32:28.489Z,1.80
2023-04-01T07:35:16.751Z,1.70
2023-04-01T07:38:01.012Z,1.60
2023-04-01T07:40:40.968Z,1.80
2023-04-01T07:43:41.619Z,1.60
2023-04-01T07:46:42.990Z,1.70
2023-04-01T07:49:19.568Z,2.10
2023-04-01T07:51:59.849Z,1.70
2023-04-01T07:54:41.564Z,1.60
2023-04-01T07:57:18.238Z,1.60
2023-04-01T08:00:01.495Z,1.50
2023-04-01T08:02:59.147Z,1.40
2023-04-01T08:05:36.295Z,1.60
2023-04-01T08:08:16.694Z,1.60
2023-04-01T08:11:31.850Z,1.90
2023-04-01T08:14:30.148Z,2.00
2023-04-01T08:17:42.810Z,1.90
2023-04-01T08:20:25.309Z,1.60
2023-04-01T08:23:03.088Z,1.50
2023-04-01T08:25:42.923Z,2.10
2023-04-01T08:28:21.814Z,2.00
2023-04-01T08:30:58.473Z,2.10
2023-04-01T08:33:31.559Z,2.20
2023-04-01T08:36:12.476Z,2.30
2023-04-01T08:38:46.943Z,2.20
2023-04-01T08:41:35.796Z,2.60
2023-04-01T08:44:39.484Z,2.20
2023-04-01T08:47:33.676Z,1.80
2023-04-01T08:50:37.151Z,2.60
2023-04-01T08:53:37.276Z,2.20
2023-04-01T08:56:17.421Z,2.70
2023-04-01T08:59:25.621Z,2.50
2023-04-01T09:02:25.130Z,2.40
2023-04-01T09:05:24.705Z,2.30
2023-04-01T09:08:06.057Z,2.50
2023-04-01T09:11:03.124Z,2.60
2023-04-01T09:14:19.551Z,2.20
2023-04-01T09:17:21.543Z,2.10
2023-04-01T09:20:08.800Z,2.50
2023-04-01T09:22:52.619Z,2.30
2023-04-01T09:25:48.440Z,2.30
2023-04-01T09:28:27.337Z,2.20
2023-04-01T09:34:27.507Z,2.30
2023-04-01T09:37:24.757Z,2.40
2023-04-01T09:40:19.794Z,2.10
2023-04-01T09:43:09.067Z,2.20
2023-04-01T09:45:50.880Z,2.30
2023-04-01T09:48:45.528Z,2.60
2023-04-01T09:51:31.035Z,3.70
2023-04-01T09:54:16.616Z,2.60
2023-04-01T09:57:08.964Z,2.90
2023-04-01T10:00:03.360Z,3.00
2023-04-01T10:03:06.541Z,2.70
2023-04-01T10:06:09.934Z,2.90
2023-04-01T10:09:17.059Z,2.30
2023-04-01T10:12:17.775Z,2.20
2023-04-01T10:15:25.202Z,2.50
2023-04-01T10:18:37.288Z,2.10
2023-04-01T10:21:27.966Z,1.90
2023-04-01T10:27:13.412Z,2.00
2023-04-01T10:30:52.429Z,2.20
2023-04-01T10:33:57.006Z,2.10
2023-04-01T10:36:52.846Z,2.30
2023-04-01T10:39:39.711Z,2.30
2023-04-01T10:43:11.574Z,2.50
2023-04-01T10:46:09.233Z,2.30
2023-04-01T10:49:19.681Z,1.50
2023-04-01T10:52:35.054Z,1.30
2023-04-01T10:55:38.876Z,1.10
2023-04-01T10:58:59.508Z,1.20
2023-04-01T11:02:29.491Z,1.30
2023-04-01T11:05:44.451Z,1.30
2023-04-01T11:08:59.445Z,1.10
2023-04-01T11:12:00.155Z,1.30
2023-04-01T11:15:04.110Z,1.00
2023-04-01T11:18:00.373Z,5.90
2023-04-01T11:20:47.457Z,1.60
2023-04-01T11:23:45.530Z,1.60
2023-04-01T11:26:34.524Z,1.90
2023-04-01T11:32:18.796Z,2.10
2023-04-01T11:35:04.976Z,1.90
2023-04-01T11:37:47.771Z,1.40
2023-04-01T11:40:44.321Z,1.50
2023-04-01T11:43:52.344Z,1.60
2023-04-01T11:46:57.306Z,1.50
2023-04-01T11:49:47.032Z,1.60
2023-04-01T11:52:44.748Z,1.20
2023-04-01T11:55:26.924Z,4.60
2023-04-01T11:58:18.465Z,1.90
2023-04-01T12:01:16.502Z,1.20
2023-04-01T12:04:02.179Z,1.80
2023-04-01T12:06:45.686Z,2.30
2023-04-01T12:09:26.066Z,1.90
2023-04-01T12:12:11.261Z,1.70
2023-04-01T12:14:49.589Z,1.50
2023-04-01T12:20:07.452Z,1.60
2023-04-01T12:22:52.918Z,1.50
2023-04-01T12:25:40.456Z,4.50
2023-04-01T12:28:24.654Z,2.10
2023-04-01T12:31:05.264Z,1.90
2023-04-01T12:34:05.674Z,1.50
2023-04-01T12:36:51.188Z,1.20
2023-04-01T12:39:50.570Z,1.10
2023-04-01T12:42:33.178Z,1.30
2023-04-01T12:45:19.427Z,1.60
2023-04-01T12:48:19.326Z,2.50
2023-04-01T12:51:28.029Z,2.60
2023-04-01T12:54:47.208Z,3.10
2023-04-01T12:57:41.065Z,1.50
2023-04-01T13:00:46.716Z,1.70
2023-04-01T13:03:31.215Z,1.60
2023-04-01T13:09:00.704Z,1.80
2023-04-01T13:11:47.410Z,2.60
2023-04-01T13:14:37.810Z,2.40
2023-04-01T13:17:18.380Z,2.60
2023-04-01T13:20:04.933Z,2.40
2023-04-01T13:22:51.193Z,2.90
2023-04-01T13:25:33.283Z,2.40
2023-04-01T13:28:11.086Z,2.30
2023-04-01T13:30:49.904Z,2.20
2023-04-01T13:33:30.650Z,2.30
2023-04-01T13:36:18.694Z,2.90
2023-04-01T13:39:17.694Z,3.70
2023-04-01T13:42:04.202Z,3.30
2023-04-01T13:44:39.458Z,2.50
2023-04-01T13:47:43.901Z,2.40
2023-04-01T13:50:55.484Z,2.00
2023-04-01T13:53:38.302Z,1.70
2023-04-01T13:56:35.650Z,2.30
2023-04-01T13:59:48.786Z,1.70
2023-04-01T14:02:37.874Z,1.60
2023-04-01T14:05:41.785Z,1.20
2023-04-01T14:08:28.483Z,1.10
2023-04-01T14:11:12.848Z,1.20
2023-04-01T14:13:54.105Z,1.20
2023-04-01T14:16:42.199Z,1.50
2023-04-01T14:19:28.856Z,1.30
2023-04-01T14:22:07.980Z,1.20
2023-04-01T14:24:59.205Z,1.30
2023-04-01T14:27:38.947Z,1.60
2023-04-01T14:30:28.711Z,1.50
2023-04-01T14:33:09.292Z,1.90
2023-04-01T14:35:47.739Z,2.10
2023-04-01T14:38:44.979Z,2.80
2023-04-01T14:44:07.838Z,2.70
2023-04-01T14:47:05.711Z,3.30
2023-04-01T14:49:38.341Z,2.60
2023-04-01T14:52:18.316Z,2.90
2023-04-01T14:54:51.218Z,2.50
2023-04-01T14:57:27.883Z,3.00
2023-04-01T15:00:12.054Z,2.60
2023-04-01T15:02:54.250Z,2.40
2023-04-01T15:05:35.160Z,9.40
2023-04-01T15:08:13.135Z,3.10
2023-04-01T15:11:00.382Z,2.80
2023-04-01T15:13:45.719Z,2.70
2023-04-01T15:16:24.941Z,2.70
2023-04-01T15:19:07.303Z,3.20
2023-04-01T15:22:17.384Z,2.60
2023-04-01T15:24:58.623Z,2.40
2023-04-01T15:27:43.580Z,2.40
2023-04-01T15:30:35.837Z,2.00
2023-04-01T15:33:20.451Z,2.00
2023-04-01T15:38:35.376Z,2.00
2023-04-01T15:41:17.300Z,2.40
2023-04-01T15:43:50.823Z,2.40
2023-04-01T15:46:46.734Z,2.60
2023-04-01T15:49:31.146Z,5.20
2023-04-01T15:52:08.565Z,5.30
2023-04-01T15:55:11.391Z,3.70
2023-04-01T15:57:54.988Z,4.00
2023-04-01T16:00:32.781Z,3.70
2023-04-01T16:03:25.648Z,3.30
2023-04-01T16:06:14.216Z,3.60
2023-04-01T16:09:04.878Z,3.30
2023-04-01T16:11:43.802Z,3.60
2023-04-01T16:14:28.447Z,3.90
2023-04-01T16:17:11.152Z,3.40
2023-04-01T16:19:51.215Z,3.40
2023-04-01T16:22:26.649Z,3.10
2023-04-01T16:25:16.063Z,4.30
2023-04-01T16:27:55.856Z,7.00
2023-04-01T16:30:42.071Z,12.20
2023-04-01T16:33:22.429Z,5.50
2023-04-01T16:36:01.934Z,4.30
2023-04-01T16:38:41.200Z,4.60
2023-04-01T16:41:26.597Z,4.40
2023-04-01T16:44:11.347Z,4.40
2023-04-01T16:46:45.243Z,4.10
2023-04-01T16:49:31.235Z,4.00
2023-04-01T16:52:16.243Z,4.00
2023-04-01T16:54:55.518Z,4.90
2023-04-01T16:57:30.690Z,4.60
2023-04-01T17:00:18.768Z,4.90
2023-04-01T17:02:58.599Z,5.10
2023-04-01T17:05:56.858Z,5.40
2023-04-01T17:08:40.876Z,5.40
2023-04-01T17:11:19.932Z,26.10
2023-04-01T17:13:59.505Z,31.20
2023-04-01T17:16:48.852Z,32.90
2023-04-01T17:19:32.909Z,8.70
2023-04-01T17:22:14.392Z,6.00
2023-04-01T17:24:58.790Z,5.70
2023-04-01T17:27:42.385Z,5.90
2023-04-01T17:30:24.892Z,6.20
2023-04-01T17:33:31.474Z,6.00
2023-04-01T17:36:06.388Z,6.50
2023-04-01T17:39:16.481Z,6.60
2023-04-01T17:41:53.842Z,6.40
2023-04-01T17:44:35.821Z,7.00
2023-04-01T17:47:36.378Z,6.90
2023-04-01T17:50:21.753Z,6.20
2023-04-01T17:53:04.159Z,6.50
2023-04-01T17:55:59.472Z,6.90
2023-04-01T17:58:42.097Z,7.70
2023-04-01T18:01:31.932Z,7.30
2023-04-01T18:04:17.652Z,6.80
2023-04-01T18:07:08.764Z,7.80
2023-04-01T18:09:50.354Z,7.40
2023-04-01T18:12:33.686Z,10.40
2023-04-01T18:15:23.801Z,10.40
2023-04-01T18:18:13.069Z,11.00
2023-04-01T18:20:54.967Z,12.00
2023-04-01T18:23:37.491Z,11.10
2023-04-01T18:26:11.643Z,11.90
2023-04-01T18:28:45.364Z,11.60
2023-04-01T18:31:21.177Z,17.40
2023-04-01T18:33:59.231Z,16.00
2023-04-01T18:36:42.477Z,13.40
2023-04-01T18:39:18.828Z,13.30
2023-04-01T18:42:02.442Z,12.90
2023-04-01T18:44:45.371Z,13.00
2023-04-01T18:47:29.168Z,12.20
2023-04-01T18:50:08.567Z,12.20
2023-04-01T18:52:43.988Z,15.00
2023-04-01T18:55:37.997Z,13.30
2023-04-01T18:58:24.384Z,12.30
2023-04-01T19:01:12.453Z,17.90
2023-04-01T19:03:52.130Z,19.90
2023-04-01T19:06:30.956Z,17.70
2023-04-01T19:09:17.914Z,15.10
2023-04-01T19:12:06.336Z,14.90
2023-04-01T19:14:54.068Z,13.70
2023-04-01T19:17:34.272Z,13.60
2023-04-01T19:20:18.806Z,14.20
2023-04-01T19:23:19.728Z,13.80
2023-04-01T19:25:55.810Z,15.00
2023-04-01T19:28:36.827Z,13.10
2023-04-01T19:31:20.788Z,13.00
2023-04-01T19:34:04.365Z,12.40
2023-04-01T19:36:47.588Z,12.80
2023-04-01T19:39:36.236Z,14.00
2023-04-01T19:42:16.230Z,13.40
2023-04-01T19:44:58.243Z,13.00
2023-04-01T19:47:47.727Z,13.00
2023-04-01T19:50:36.113Z,13.10
2023-04-01T19:53:16.073Z,12.20
2023-04-01T19:55:57.500Z,13.00
2023-04-01T19:58:35.064Z,13.20
2023-04-01T20:01:10.892Z,16.00
2023-04-01T20:03:50.666Z,13.40
2023-04-01T20:06:30.614Z,14.70
2023-04-01T20:09:25.866Z,15.80
2023-04-01T20:12:02.276Z,16.70
2023-04-01T20:14:44.498Z,14.20
2023-04-01T20:17:25.489Z,13.60
2023-04-01T20:20:01.350Z,14.40
2023-04-01T20:23:04.166Z,15.10
2023-04-01T20:25:42.595Z,15.00
2023-04-01T20:28:24.101Z,13.50
2023-04-01T20:31:21.523Z,14.70
2023-04-01T20:34:11.648Z,19.60
2023-04-01T20:36:53.740Z,23.20
2023-04-01T20:39:47.375Z,17.30
2023-04-01T20:42:55.938Z,13.90
2023-04-01T20:45:36.623Z,14.20
2023-04-01T20:48:26.486Z,14.50
2023-04-01T20:51:00.676Z,20.80
2023-04-01T20:53:42.975Z,15.60
2023-04-01T20:56:29.833Z,14.90
2023-04-01T20:59:10.541Z,15.00
2023-04-01T21:01:49.691Z,15.60
2023-04-01T21:04:29.192Z,14.70
2023-04-01T21:07:13.178Z,15.50
2023-04-01T21:09:57.730Z,20.60
2023-04-01T21:15:18.607Z,14.80
2023-04-01T21:18:01.251Z,15.10
2023-04-01T21:20:49.283Z,15.80
2023-04-01T21:23:31.164Z,16.20
2023-04-01T21:26:17.670Z,15.60
2023-04-01T21:29:02.100Z,16.50
2023-04-01T21:31:48.394Z,16.20
2023-04-01T21:34:42.929Z,15.10
2023-04-01T21:37:37.770Z,15.60
2023-04-01T21:40:34.689Z,14.70
2023-04-01T21:43:19.940Z,14.20
2023-04-01T21:46:12.543Z,14.80
2023-04-01T21:48:54.841Z,15.20
2023-04-01T21:51:49.233Z,15.60
2023-04-01T21:54:41.809Z,15.00
2023-04-01T21:57:41.957Z,15.70
2023-04-01T22:00:19.374Z,15.30
2023-04-01T22:03:26.869Z,14.60
2023-04-01T22:06:10.783Z,14.60
2023-04-01T22:08:53.902Z,16.30
2023-04-01T22:11:45.768Z,15.40
2023-04-01T22:14:21.561Z,15.40
2023-04-01T22:16:59.364Z,15.10
2023-04-01T22:19:41.150Z,15.90
2023-04-01T22:22:20.596Z,15.40
2023-04-01T22:25:01.522Z,14.50
2023-04-01T22:27:37.160Z,14.90
2023-04-01T22:30:20.051Z,15.90
2023-04-01T22:32:52.789Z,14.60
2023-04-01T22:35:39.553Z,13.90
2023-04-01T22:38:24.293Z,13.40
2023-04-01T22:43:38.304Z,13.80
2023-04-01T22:46:39.212Z,14.30
2023-04-01T22:49:17.464Z,12.90
2023-04-01T22:54:27.438Z,13.80
2023-04-01T22:57:02.465Z,12.60
2023-04-01T22:59:37.930Z,14.00
2023-04-01T23:02:15.887Z,13.20
2023-04-01T23:04:51.144Z,25.90
2023-04-01T23:07:34.390Z,16.30
2023-04-01T23:10:07.923Z,14.10
2023-04-01T23:12:38.546Z,12.60
2023-04-01T23:15:16.716Z,13.70
2023-04-01T23:18:18.473Z,15.50
2023-04-01T23:21:10.278Z,16.20
2023-04-01T23:24:03.068Z,12.30
2023-04-01T23:26:40.458Z,11.80
2023-04-01T23:29:16.776Z,11.00
2023-04-01T23:31:49.368Z,10.70
2023-04-01T23:34:34.739Z,10.20
2023-04-01T23:37:12.623Z,9.90
2023-04-01T23:39:45.978Z,9.60
2023-04-01T23:42:21.689Z,9.50
2023-04-01T23:44:56.051Z,9.50
2023-04-01T23:47:32.426Z,9.20
2023-04-01T23:50:06.224Z,9.20
2023-04-01T23:52:42.336Z,8.60
2023-04-01T23:55:20.635Z,8.00
